createdAt,value
2019-01-03T00:00:35.971Z,0
2019-01-03T00:01:34.515Z,0
2019-01-03T00:02:33.066Z,0
2019-01-03T00:03:31.871Z,0
2019-01-03T00:24:09.827Z,0
2019-01-03T00:25:08.354Z,0
2019-01-03T00:26:06.983Z,0
2019-01-03T00:27:05.773Z,0
2019-01-03T00:28:04.343Z,0
2019-01-03T00:29:03.046Z,0
2019-01-03T00:30:01.629Z,0
2019-01-03T00:31:00.288Z,0
2019-01-03T00:31:58.965Z,0
2019-01-03T00:32:57.786Z,0
2019-01-03T00:33:56.318Z,0
2019-01-03T00:34:54.891Z,0
2019-01-03T00:35:53.702Z,0
2019-01-03T00:36:52.247Z,0
2019-01-03T00:37:50.815Z,0
2019-01-03T00:38:49.325Z,0
2019-01-03T00:39:47.882Z,0
2019-01-03T00:40:46.426Z,0
2019-01-03T00:41:45.192Z,0
2019-01-03T00:42:43.845Z,0
2019-01-03T00:43:42.379Z,0
2019-01-03T00:44:41.058Z,0
2019-01-03T00:47:24.428Z,0
2019-01-03T00:48:23.131Z,0
2019-01-03T00:49:21.822Z,0
2019-01-03T00:50:20.328Z,0
2019-01-03T00:51:18.948Z,0
2019-01-03T00:52:17.821Z,0
2019-01-03T00:53:16.345Z,0
2019-01-03T00:54:14.899Z,0
2019-01-03T00:55:13.442Z,0
2019-01-03T00:56:12.031Z,0
2019-01-03T00:57:10.723Z,0
2019-01-03T00:58:09.570Z,0
2019-01-03T00:59:08.092Z,0
2019-01-03T01:00:06.639Z,0
2019-01-03T01:01:05.515Z,0
2019-01-03T01:02:04.068Z,0
2019-01-03T01:03:02.945Z,0
2019-01-03T01:04:01.759Z,0
2019-01-03T01:05:00.314Z,0
2019-01-03T01:05:58.839Z,0
2019-01-03T01:06:57.691Z,0
2019-01-03T01:07:56.306Z,0
2019-01-03T01:08:54.959Z,0
2019-01-03T01:09:53.743Z,0
2019-01-03T01:10:52.295Z,0
2019-01-03T01:11:50.894Z,0
2019-01-03T01:12:49.573Z,0
2019-01-03T01:13:48.116Z,0
2019-01-03T01:14:46.686Z,0
2019-01-03T01:15:45.231Z,0
2019-01-03T01:16:43.781Z,0
2019-01-03T01:17:42.360Z,0
2019-01-03T01:18:41.093Z,0
2019-01-03T01:19:39.884Z,0
2019-01-03T01:20:38.461Z,0
2019-01-03T01:21:37.096Z,0
2019-01-03T01:22:35.770Z,0
2019-01-03T01:23:34.368Z,0
2019-01-03T01:24:33.058Z,0
2019-01-03T01:25:31.952Z,0
2019-01-03T01:26:30.503Z,0
2019-01-03T01:27:29.098Z,0
2019-01-03T01:28:27.810Z,0
2019-01-03T01:29:26.348Z,0
2019-01-03T01:30:24.891Z,0
2019-01-03T01:31:23.419Z,0
2019-01-03T01:32:22.031Z,0
2019-01-03T01:33:20.562Z,0
2019-01-03T01:34:19.211Z,0
2019-01-03T01:35:18.034Z,0
2019-01-03T01:36:16.547Z,0
2019-01-03T01:37:15.194Z,0
2019-01-03T01:38:14.011Z,0
2019-01-03T01:39:12.539Z,0
2019-01-03T01:40:11.082Z,0
2019-01-03T01:41:09.667Z,0
2019-01-03T01:42:08.244Z,0
2019-01-03T01:43:06.956Z,0
2019-01-03T01:44:05.871Z,0
2019-01-03T01:45:04.408Z,0
2019-01-03T01:46:03.070Z,0
2019-01-03T01:47:01.718Z,0
2019-01-03T01:48:00.348Z,0
2019-01-03T01:48:59.099Z,0
2019-01-03T01:49:57.981Z,0
2019-01-03T01:50:56.517Z,0
2019-01-03T01:51:55.155Z,0
2019-01-03T01:52:53.748Z,0
2019-01-03T01:53:52.277Z,0
2019-01-03T01:54:50.850Z,0
2019-01-03T01:55:49.390Z,0
2019-01-03T01:56:47.925Z,0
2019-01-03T01:57:46.441Z,0
2019-01-03T01:58:45.042Z,0
2019-01-03T01:59:43.702Z,0
2019-01-03T02:00:42.233Z,0
2019-01-03T02:01:40.832Z,0
2019-01-03T02:02:39.644Z,0
2019-01-03T02:03:38.364Z,0
2019-01-03T02:04:36.914Z,0
2019-01-03T02:05:35.534Z,0
2019-01-03T02:06:34.071Z,0
2019-01-03T02:07:32.708Z,0
2019-01-03T02:08:31.344Z,0
2019-01-03T02:09:30.062Z,0
2019-01-03T02:10:28.619Z,0
2019-01-03T02:11:27.546Z,0
2019-01-03T02:12:26.062Z,0
2019-01-03T02:13:24.634Z,0
2019-01-03T02:14:23.181Z,0
2019-01-03T02:15:21.712Z,0
2019-01-03T02:16:20.254Z,0
2019-01-03T02:17:19.036Z,0
2019-01-03T02:18:17.817Z,0
2019-01-03T02:19:16.581Z,0
2019-01-03T02:20:15.173Z,0
2019-01-03T02:21:13.734Z,0
2019-01-03T02:22:12.312Z,0
2019-01-03T02:23:10.986Z,0
2019-01-03T02:24:09.849Z,0
2019-01-03T02:25:08.391Z,0
2019-01-03T02:26:06.938Z,0
2019-01-03T02:27:05.808Z,0
2019-01-03T02:28:05.381Z,0
2019-01-03T02:29:03.914Z,0
2019-01-03T02:30:02.434Z,0
2019-01-03T02:31:01.109Z,0
2019-01-03T02:31:59.824Z,0
2019-01-03T02:32:58.509Z,0
2019-01-03T02:33:57.033Z,0
2019-01-03T02:34:55.888Z,0
2019-01-03T02:35:54.417Z,0
2019-01-03T02:36:52.949Z,0
2019-01-03T02:37:51.477Z,0
2019-01-03T02:38:50.096Z,0
2019-01-03T02:39:48.671Z,0
2019-01-03T02:40:47.374Z,0
2019-01-03T02:41:46.131Z,0
2019-01-03T02:42:44.678Z,0
2019-01-03T02:43:43.537Z,0
2019-01-03T02:44:42.060Z,0
2019-01-03T02:45:40.625Z,0
2019-01-03T02:46:39.144Z,0
2019-01-03T02:47:37.688Z,0
2019-01-03T02:48:36.229Z,0
2019-01-03T02:49:34.916Z,0
2019-01-03T02:50:33.872Z,0
2019-01-03T02:51:32.406Z,0
2019-01-03T02:52:31.143Z,0
2019-01-03T02:53:29.675Z,0
2019-01-03T02:54:28.254Z,0
2019-01-03T02:55:26.800Z,0
2019-01-03T02:56:25.299Z,0
2019-01-03T02:57:23.841Z,0
2019-01-03T02:58:23.616Z,0
2019-01-03T02:59:21.159Z,0
2019-01-03T03:00:20.286Z,0
2019-01-03T03:01:18.839Z,0
2019-01-03T03:02:17.391Z,0
2019-01-03T03:03:15.937Z,0
2019-01-03T03:04:14.479Z,0
2019-01-03T03:05:13.236Z,0
2019-01-03T03:06:12.016Z,0
2019-01-03T03:07:10.578Z,0
2019-01-03T03:08:09.219Z,0
2019-01-03T03:09:07.939Z,0
2019-01-03T03:10:06.491Z,0
2019-01-03T03:11:05.046Z,0
2019-01-03T03:12:03.577Z,0
2019-01-03T03:13:02.114Z,0
2019-01-03T03:14:00.707Z,0
2019-01-03T03:14:59.408Z,0
2019-01-03T03:15:58.054Z,0
2019-01-03T03:16:56.563Z,0
2019-01-03T03:17:55.265Z,0
2019-01-03T03:18:54.006Z,0
2019-01-03T03:19:52.588Z,0
2019-01-03T03:20:51.120Z,0
2019-01-03T03:21:50.033Z,0
2019-01-03T03:22:48.590Z,0
2019-01-03T03:23:47.324Z,0
2019-01-03T03:24:46.016Z,0
2019-01-03T03:25:44.534Z,0
2019-01-03T03:26:43.209Z,0
2019-01-03T03:27:41.777Z,0
2019-01-03T03:28:40.319Z,0
2019-01-03T03:29:38.828Z,0
2019-01-03T03:30:37.372Z,0
2019-01-03T03:31:35.925Z,0
2019-01-03T03:32:34.450Z,0
2019-01-03T03:33:33.152Z,0
2019-01-03T03:34:31.876Z,0
2019-01-03T03:35:30.509Z,0
2019-01-03T03:36:29.060Z,0
2019-01-03T03:37:27.863Z,0
2019-01-03T03:38:26.416Z,0
2019-01-03T03:39:24.964Z,0
2019-01-03T03:40:23.536Z,0
2019-01-03T03:41:22.079Z,0
2019-01-03T03:45:01.065Z,0
2019-01-03T03:45:59.877Z,0
2019-01-03T03:46:58.556Z,0
2019-01-03T03:47:57.240Z,0
2019-01-03T03:48:55.976Z,0
2019-01-03T03:49:54.516Z,0
2019-01-03T03:50:53.272Z,0
2019-01-03T03:51:52.318Z,0
2019-01-03T03:52:50.851Z,0
2019-01-03T03:53:49.721Z,0
2019-01-03T03:54:48.270Z,0
2019-01-03T03:55:46.820Z,0
2019-01-03T03:56:45.630Z,0
2019-01-03T03:57:44.229Z,0
2019-01-03T03:58:42.986Z,0
2019-01-03T03:59:41.766Z,0
2019-01-03T04:00:40.335Z,0
2019-01-03T04:01:38.901Z,0
2019-01-03T04:02:37.643Z,0
2019-01-03T04:03:36.230Z,0
2019-01-03T04:04:34.768Z,0
2019-01-03T04:05:33.314Z,0
2019-01-03T04:06:31.875Z,0
2019-01-03T04:07:30.431Z,0
2019-01-03T04:08:29.070Z,0
2019-01-03T04:09:27.990Z,0
2019-01-03T04:10:26.549Z,0
2019-01-03T04:12:49.459Z,0
2019-01-03T04:13:48.181Z,0
2019-01-03T04:14:46.654Z,0
2019-01-03T04:15:45.573Z,0
2019-01-03T04:16:44.139Z,0
2019-01-03T04:17:42.680Z,0
2019-01-03T04:18:41.250Z,0
2019-01-03T04:19:39.802Z,0
2019-01-03T04:20:38.368Z,0
2019-01-03T04:21:36.919Z,0
2019-01-03T04:22:35.452Z,0
2019-01-03T04:23:34.043Z,0
2019-01-03T04:24:32.583Z,0
2019-01-03T04:25:31.227Z,0
2019-01-03T04:26:29.947Z,0
2019-01-03T04:27:28.518Z,0
2019-01-03T04:28:27.413Z,0
2019-01-03T04:29:25.989Z,0
2019-01-03T04:30:24.565Z,0
2019-01-03T04:31:23.354Z,0
2019-01-03T04:32:22.019Z,0
2019-01-03T04:33:20.581Z,0
2019-01-03T04:34:19.531Z,0
2019-01-03T04:35:18.093Z,0
2019-01-03T04:36:16.634Z,0
2019-01-03T04:37:15.306Z,0
2019-01-03T04:38:13.823Z,0
2019-01-03T04:39:12.361Z,0
2019-01-03T04:40:10.964Z,0
2019-01-03T04:41:09.780Z,0
2019-01-03T04:42:08.330Z,0
2019-01-03T04:43:06.992Z,0
2019-01-03T04:44:05.734Z,0
2019-01-03T04:45:04.460Z,0
2019-01-03T04:46:03.097Z,0
2019-01-03T04:47:01.863Z,0
2019-01-03T04:48:00.386Z,0
2019-01-03T04:48:58.916Z,0
2019-01-03T04:49:57.735Z,0
2019-01-03T04:50:56.477Z,0
2019-01-03T04:51:55.133Z,0
2019-01-03T04:52:53.989Z,0
2019-01-03T04:53:52.528Z,0
2019-01-03T04:54:51.325Z,0
2019-01-03T04:55:49.883Z,0
2019-01-03T04:56:48.407Z,0
2019-01-03T04:57:46.947Z,0
2019-01-03T04:58:45.529Z,0
2019-01-03T04:59:44.074Z,0
2019-01-03T05:00:42.629Z,0
2019-01-03T05:01:41.280Z,0
2019-01-03T05:02:39.920Z,0
2019-01-03T05:03:38.467Z,0
2019-01-03T05:04:37.230Z,0
2019-01-03T05:05:36.039Z,0
2019-01-03T05:06:34.522Z,0
2019-01-03T05:07:33.417Z,0
2019-01-03T05:08:32.106Z,0
2019-01-03T05:09:30.654Z,0
2019-01-03T05:10:29.308Z,0
2019-01-03T05:11:28.072Z,0
2019-01-03T05:12:26.582Z,0
2019-01-03T05:13:25.148Z,0
2019-01-03T05:14:23.695Z,0
2019-01-03T05:15:22.238Z,0
2019-01-03T05:16:20.802Z,0
2019-01-03T05:17:19.530Z,0
2019-01-03T05:18:18.187Z,0
2019-01-03T05:19:16.727Z,0
2019-01-03T05:20:15.424Z,0
2019-01-03T05:21:14.065Z,0
2019-01-03T05:22:12.611Z,0
2019-01-03T05:23:11.232Z,0
2019-01-03T05:24:09.775Z,0
2019-01-03T05:25:08.324Z,0
2019-01-03T05:26:06.936Z,0
2019-01-03T05:27:05.702Z,0
2019-01-03T05:28:04.238Z,0
2019-01-03T05:29:02.759Z,0
2019-01-03T05:30:01.570Z,0
2019-01-03T05:31:00.254Z,0
2019-01-03T05:31:58.773Z,0
2019-01-03T05:32:57.418Z,0
2019-01-03T05:33:56.042Z,0
2019-01-03T05:34:54.593Z,0
2019-01-03T05:35:53.274Z,0
2019-01-03T05:36:52.141Z,0
2019-01-03T05:37:50.674Z,0
2019-01-03T05:38:49.244Z,0
2019-01-03T05:39:48.075Z,0
2019-01-03T05:40:46.634Z,0
2019-01-03T05:41:45.168Z,0
2019-01-03T05:42:43.690Z,0
2019-01-03T05:43:42.258Z,0
2019-01-03T05:44:40.902Z,0
2019-01-03T05:45:39.728Z,0
2019-01-03T05:46:38.355Z,0
2019-01-03T05:47:36.956Z,0
2019-01-03T05:48:35.644Z,0
2019-01-03T05:49:34.218Z,0
2019-01-03T05:50:32.730Z,0
2019-01-03T05:51:31.258Z,0
2019-01-03T05:52:29.798Z,0
2019-01-03T05:53:28.313Z,0
2019-01-03T05:54:26.843Z,0
2019-01-03T05:55:25.510Z,0
2019-01-03T05:56:24.090Z,0
2019-01-03T05:57:22.633Z,0
2019-01-03T05:58:21.565Z,0
2019-01-03T05:59:20.167Z,0
2019-01-03T06:00:18.733Z,0
2019-01-03T06:01:17.338Z,0
2019-01-03T06:02:15.886Z,0
2019-01-03T06:03:14.446Z,0
2019-01-03T06:04:12.990Z,0
2019-01-03T06:05:11.527Z,0
2019-01-03T06:06:10.051Z,0
2019-01-03T06:07:08.591Z,0
2019-01-03T06:08:07.119Z,0
2019-01-03T06:09:05.815Z,0
2019-01-03T06:10:04.416Z,0
2019-01-03T06:11:03.023Z,0
2019-01-03T06:12:01.731Z,0
2019-01-03T06:13:00.266Z,0
2019-01-03T06:13:58.852Z,0
2019-01-03T06:14:57.605Z,0
2019-01-03T06:15:56.123Z,0
2019-01-03T06:16:54.682Z,0
2019-01-03T06:17:53.225Z,0
2019-01-03T06:18:51.735Z,0
2019-01-03T06:19:50.260Z,0
2019-01-03T06:20:48.795Z,0
2019-01-03T06:21:47.354Z,0
2019-01-03T06:22:45.898Z,0
2019-01-03T06:23:44.440Z,0
2019-01-03T06:24:43.149Z,0
2019-01-03T06:25:41.965Z,0
2019-01-03T06:26:40.505Z,0
2019-01-03T06:27:39.054Z,0
2019-01-03T06:28:37.779Z,0
2019-01-03T06:29:36.320Z,0
2019-01-03T06:30:34.853Z,0
2019-01-03T06:31:33.450Z,0
2019-01-03T06:32:31.991Z,0
2019-01-03T06:33:30.615Z,0
2019-01-03T06:34:29.677Z,0
2019-01-03T06:35:28.349Z,0
2019-01-03T06:36:26.919Z,0
2019-01-03T06:37:25.528Z,0
2019-01-03T06:38:24.075Z,0
2019-01-03T06:39:22.596Z,0
2019-01-03T06:40:21.111Z,0
2019-01-03T06:41:19.655Z,0
2019-01-03T06:42:18.264Z,0
2019-01-03T06:43:16.815Z,0
2019-01-03T06:44:15.455Z,0
2019-01-03T06:45:14.202Z,0
2019-01-03T06:46:12.769Z,0
2019-01-03T06:47:11.722Z,0
2019-01-03T06:48:10.289Z,0
2019-01-03T06:49:09.058Z,0
2019-01-03T06:50:07.990Z,0
2019-01-03T06:51:06.672Z,0
2019-01-03T06:52:05.254Z,0
2019-01-03T06:53:03.864Z,0
2019-01-03T06:54:02.465Z,0
2019-01-03T06:55:01.528Z,0
2019-01-03T06:56:00.152Z,0
2019-01-03T06:56:58.695Z,0
2019-01-03T06:57:57.354Z,0
2019-01-03T06:58:55.984Z,0
2019-01-03T06:59:54.537Z,0
2019-01-03T07:00:53.233Z,0
2019-01-03T07:01:51.942Z,0
2019-01-03T07:02:50.494Z,0
2019-01-03T07:03:49.110Z,0
2019-01-03T07:04:48.045Z,0
2019-01-03T07:05:46.628Z,0
2019-01-03T07:06:45.303Z,0
2019-01-03T07:07:44.056Z,0
2019-01-03T07:08:42.598Z,0
2019-01-03T07:09:41.260Z,0
2019-01-03T07:10:40.196Z,0
2019-01-03T07:11:38.758Z,0
2019-01-03T07:12:37.408Z,0
2019-01-03T07:13:36.049Z,0
2019-01-03T07:14:34.593Z,0
2019-01-03T07:15:33.331Z,0
2019-01-03T07:16:32.201Z,0
2019-01-03T07:17:30.769Z,0
2019-01-03T07:18:29.455Z,0
2019-01-03T07:19:28.136Z,0
2019-01-03T07:20:26.681Z,0
2019-01-03T07:21:27.328Z,0
2019-01-03T07:22:24.293Z,0
2019-01-03T07:23:23.095Z,0
2019-01-03T07:24:21.912Z,0
2019-01-03T07:27:36.335Z,0
2019-01-03T07:28:35.139Z,0
2019-01-03T07:29:34.035Z,0
2019-01-03T07:30:32.578Z,0
2019-01-03T07:31:31.237Z,0
2019-01-03T07:32:29.866Z,0
2019-01-03T07:33:28.421Z,0
2019-01-03T07:34:26.959Z,0
2019-01-03T07:35:25.585Z,0
2019-01-03T07:36:24.202Z,0
2019-01-03T07:37:22.758Z,0
2019-01-03T07:38:21.647Z,0
2019-01-03T07:39:20.364Z,0
2019-01-03T07:40:18.997Z,0
2019-01-03T07:41:17.570Z,0
2019-01-03T07:42:16.143Z,0
2019-01-03T07:43:14.711Z,0
2019-01-03T07:44:13.407Z,0
2019-01-03T07:45:12.076Z,0
2019-01-03T07:46:10.630Z,0
2019-01-03T07:47:09.272Z,0
2019-01-03T07:48:08.118Z,0
2019-01-03T07:49:06.693Z,0
2019-01-03T07:50:05.469Z,0
2019-01-03T07:51:04.172Z,0
2019-01-03T07:52:02.700Z,0
2019-01-03T07:53:01.690Z,0
2019-01-03T07:54:00.264Z,0
2019-01-03T07:54:58.996Z,0
2019-01-03T07:55:57.864Z,0
2019-01-03T07:56:56.473Z,0
2019-01-03T07:57:55.082Z,0
2019-01-03T07:58:53.813Z,0
2019-01-03T07:59:52.425Z,0
2019-01-03T08:00:51.117Z,0
2019-01-03T08:01:49.947Z,0
2019-01-03T08:02:48.485Z,0
2019-01-03T08:03:47.097Z,0
2019-01-03T08:04:45.846Z,0
2019-01-03T08:05:44.456Z,0
2019-01-03T08:06:43.182Z,0
2019-01-03T08:07:42.029Z,0
2019-01-03T08:08:40.586Z,0
2019-01-03T08:09:39.291Z,0
2019-01-03T08:10:37.906Z,0
2019-01-03T08:11:36.553Z,5
2019-01-03T08:12:35.338Z,5
2019-01-03T08:13:34.002Z,5
2019-01-03T08:14:32.496Z,5
2019-01-03T08:15:31.241Z,5
2019-01-03T08:16:30.007Z,5
2019-01-03T08:17:28.519Z,5
2019-01-03T08:18:27.065Z,5
2019-01-03T08:19:25.650Z,5
2019-01-03T08:20:24.259Z,5
2019-01-03T08:21:22.693Z,5
2019-01-03T08:22:21.416Z,5
2019-01-03T08:23:20.156Z,5
2019-01-03T08:24:18.680Z,5
2019-01-03T08:25:17.371Z,5
2019-01-03T08:26:16.129Z,5
2019-01-03T08:27:14.690Z,5
2019-01-03T08:28:13.235Z,5
2019-01-03T08:29:11.793Z,5
2019-01-03T08:30:10.326Z,5
2019-01-03T08:31:09.070Z,5
2019-01-03T08:32:07.905Z,5
2019-01-03T08:33:06.766Z,5
2019-01-03T08:34:05.382Z,5
2019-01-03T08:35:03.962Z,5
2019-01-03T08:36:02.525Z,5
2019-01-03T08:37:01.206Z,5
2019-01-03T08:38:00.012Z,5
2019-01-03T08:38:58.550Z,5
2019-01-03T08:39:58.116Z,5
2019-01-03T08:40:56.007Z,5
2019-01-03T08:41:54.537Z,5
2019-01-03T08:42:53.268Z,5
2019-01-03T08:43:51.920Z,5
2019-01-03T08:44:50.465Z,5
2019-01-03T08:45:50.299Z,5
2019-01-03T08:46:47.908Z,5
2019-01-03T08:47:46.453Z,5
2019-01-03T08:48:44.994Z,5
2019-01-03T08:49:43.588Z,5
2019-01-03T08:50:42.108Z,5
2019-01-03T08:51:40.628Z,5
2019-01-03T08:52:39.308Z,5
2019-01-03T08:53:38.032Z,5
2019-01-03T08:54:36.627Z,5
2019-01-03T08:55:35.350Z,5
2019-01-03T08:56:34.112Z,5
2019-01-03T08:57:32.714Z,5
2019-01-03T08:58:31.267Z,5
2019-01-03T08:59:29.769Z,5
2019-01-03T09:00:28.379Z,5
2019-01-03T09:01:26.892Z,5
2019-01-03T09:02:25.642Z,5
2019-01-03T09:03:24.252Z,5
2019-01-03T09:04:22.797Z,5
2019-01-03T09:05:21.770Z,10
2019-01-03T09:06:20.310Z,10
2019-01-03T09:07:19.061Z,10
2019-01-03T09:08:18.022Z,10
2019-01-03T09:09:16.714Z,10
2019-01-03T09:10:15.284Z,10
2019-01-03T09:11:13.856Z,10
2019-01-03T09:12:12.450Z,10
2019-01-03T09:13:10.974Z,10
2019-01-03T09:14:09.746Z,10
2019-01-03T09:15:08.301Z,10
2019-01-03T09:16:06.951Z,10
2019-01-03T09:17:05.652Z,5
2019-01-03T09:18:09.533Z,5
2019-01-03T09:19:02.959Z,5
2019-01-03T09:20:01.521Z,10
2019-01-03T09:21:00.046Z,10
2019-01-03T09:21:58.620Z,10
2019-01-03T09:22:57.340Z,10
2019-01-03T09:23:56.403Z,10
2019-01-03T09:24:54.602Z,10
2019-01-03T09:25:53.219Z,10
2019-01-03T09:26:52.234Z,15
2019-01-03T09:27:50.760Z,15
2019-01-03T09:28:49.470Z,15
2019-01-03T09:29:48.176Z,10
2019-01-03T09:30:47.472Z,10
2019-01-03T09:31:46.134Z,10
2019-01-03T09:32:44.659Z,10
2019-01-03T09:33:43.374Z,10
2019-01-03T09:34:42.259Z,10
2019-01-03T09:35:40.719Z,5
2019-01-03T09:36:39.460Z,5
2019-01-03T09:37:38.068Z,5
2019-01-03T09:38:36.653Z,5
2019-01-03T09:39:35.165Z,5
2019-01-03T09:40:34.010Z,5
2019-01-03T09:41:32.549Z,10
2019-01-03T09:42:31.326Z,10
2019-01-03T09:43:29.898Z,10
2019-01-03T09:44:28.464Z,10
2019-01-03T09:45:27.252Z,10
2019-01-03T09:46:26.097Z,10
2019-01-03T09:47:24.607Z,10
2019-01-03T09:48:23.312Z,10
2019-01-03T09:49:21.953Z,10
2019-01-03T09:50:20.501Z,10
2019-01-03T09:51:19.319Z,10
2019-01-03T09:52:17.999Z,10
2019-01-03T09:53:16.674Z,10
2019-01-03T09:54:15.261Z,10
2019-01-03T09:55:14.002Z,10
2019-01-03T09:56:12.573Z,10
2019-01-03T09:57:11.115Z,10
2019-01-03T09:58:09.679Z,10
2019-01-03T09:59:08.272Z,10
2019-01-03T10:00:06.797Z,10
2019-01-03T10:01:05.470Z,10
2019-01-03T10:02:04.172Z,10
2019-01-03T10:03:02.710Z,10
2019-01-03T10:04:01.417Z,5
2019-01-03T10:05:00.180Z,5
2019-01-03T10:05:58.778Z,5
2019-01-03T10:06:57.290Z,5
2019-01-03T10:07:55.899Z,5
2019-01-03T10:08:54.463Z,5
2019-01-03T10:09:53.355Z,5
2019-01-03T10:10:52.097Z,5
2019-01-03T10:11:50.650Z,5
2019-01-03T10:12:49.280Z,5
2019-01-03T10:13:47.829Z,5
2019-01-03T10:14:46.383Z,10
2019-01-03T10:15:44.933Z,10
2019-01-03T10:16:43.720Z,10
2019-01-03T10:17:42.335Z,5
2019-01-03T10:18:40.899Z,5
2019-01-03T10:19:39.872Z,5
2019-01-03T10:20:38.486Z,5
2019-01-03T10:21:37.143Z,5
2019-01-03T10:22:35.927Z,5
2019-01-03T10:23:34.464Z,5
2019-01-03T10:24:33.046Z,5
2019-01-03T10:25:31.975Z,5
2019-01-03T10:26:30.635Z,5
2019-01-03T10:27:29.330Z,5
2019-01-03T10:28:28.027Z,5
2019-01-03T10:29:26.561Z,10
2019-01-03T10:30:25.151Z,10
2019-01-03T10:31:24.176Z,10
2019-01-03T10:32:22.777Z,10
2019-01-03T10:33:21.434Z,10
2019-01-03T10:34:20.235Z,10
2019-01-03T10:35:18.791Z,10
2019-01-03T10:36:17.516Z,30
2019-01-03T10:37:16.153Z,35
2019-01-03T10:38:20.844Z,35
2019-01-03T10:39:13.249Z,35
2019-01-03T10:40:11.892Z,40
2019-01-03T10:41:10.465Z,40
2019-01-03T10:42:09.047Z,40
2019-01-03T10:43:07.886Z,40
2019-01-03T10:44:06.457Z,40
2019-01-03T10:45:05.033Z,40
2019-01-03T10:46:03.817Z,40
2019-01-03T10:47:02.353Z,40
2019-01-03T10:48:01.188Z,40
2019-01-03T10:48:59.996Z,40
2019-01-03T10:49:58.543Z,35
2019-01-03T10:50:57.235Z,30
2019-01-03T10:51:55.909Z,30
2019-01-03T10:55:34.475Z,35
2019-01-03T10:56:33.234Z,40
2019-01-03T10:57:32.012Z,40
2019-01-03T10:58:30.579Z,40
2019-01-03T10:59:29.135Z,40
2019-01-03T11:00:27.830Z,35
2019-01-03T11:01:26.368Z,35
2019-01-03T11:02:25.157Z,35
2019-01-03T11:03:24.015Z,40
2019-01-03T11:04:22.584Z,40
2019-01-03T11:05:21.133Z,45
2019-01-03T11:06:19.943Z,45
2019-01-03T11:07:18.511Z,40
2019-01-03T11:08:17.073Z,40
2019-01-03T11:09:15.599Z,35
2019-01-03T11:10:14.129Z,30
2019-01-03T11:11:12.687Z,30
2019-01-03T11:12:11.493Z,30
2019-01-03T11:23:45.501Z,30
2019-01-03T11:24:44.094Z,35
2019-01-03T11:25:42.671Z,40
2019-01-03T11:26:41.336Z,45
2019-01-03T11:27:40.103Z,45
2019-01-03T11:28:38.627Z,40
2019-01-03T11:29:37.240Z,40
2019-01-03T11:30:36.120Z,40
2019-01-03T11:31:34.802Z,40
2019-01-03T11:32:33.441Z,40
2019-01-03T11:35:17.777Z,45
2019-01-03T11:36:16.453Z,45
2019-01-03T11:37:15.047Z,40
2019-01-03T11:38:13.954Z,40
2019-01-03T11:39:12.569Z,35
2019-01-03T11:40:11.200Z,35
2019-01-03T11:41:10.036Z,35
2019-01-03T11:42:08.606Z,35
2019-01-03T11:43:07.155Z,40
2019-01-03T11:44:05.684Z,40
2019-01-03T11:45:04.191Z,40
2019-01-03T11:46:02.710Z,40
2019-01-03T11:47:01.552Z,40
2019-01-03T11:48:00.225Z,45
2019-01-03T11:48:58.777Z,45
2019-01-03T11:49:57.487Z,45
2019-01-03T11:50:56.158Z,45
2019-01-03T11:51:54.769Z,45
2019-01-03T11:52:53.257Z,45
2019-01-03T11:53:51.860Z,45
2019-01-03T11:54:50.379Z,50
2019-01-03T11:55:49.255Z,55
2019-01-03T11:56:47.956Z,60
2019-01-03T11:57:46.499Z,65
2019-01-03T11:58:45.047Z,75
2019-01-03T11:59:43.866Z,80
2019-01-03T12:00:42.406Z,80
2019-01-03T12:01:41.238Z,75
2019-01-03T12:02:40.185Z,70
2019-01-03T12:03:38.725Z,60
2019-01-03T12:04:37.405Z,55
2019-01-03T12:05:36.002Z,50
2019-01-03T12:06:34.540Z,50
2019-01-03T12:07:33.424Z,45
2019-01-03T12:08:32.025Z,50
2019-01-03T12:09:30.606Z,45
2019-01-03T12:10:29.152Z,45
2019-01-03T12:11:28.030Z,40
2019-01-03T12:12:26.607Z,35
2019-01-03T12:13:25.307Z,35
2019-01-03T12:14:23.996Z,35
2019-01-03T12:15:22.559Z,35
2019-01-03T12:16:21.239Z,35
2019-01-03T12:17:20.073Z,35
2019-01-03T12:18:18.692Z,35
2019-01-03T12:19:17.247Z,40
2019-01-03T12:20:15.762Z,45
2019-01-03T12:21:14.295Z,45
2019-01-03T12:22:13.137Z,50
2019-01-03T12:23:11.873Z,50
2019-01-03T12:24:10.532Z,50
2019-01-03T12:25:09.100Z,45
2019-01-03T12:27:49.628Z,50
2019-01-03T12:28:48.219Z,45
2019-01-03T12:29:46.776Z,40
2019-01-03T12:30:45.417Z,40
2019-01-03T12:31:46.123Z,35
2019-01-03T12:32:44.696Z,35
2019-01-03T12:33:43.284Z,35
2019-01-03T12:34:41.953Z,40
2019-01-03T12:35:40.684Z,40
2019-01-03T12:36:39.506Z,40
2019-01-03T12:37:38.134Z,40
2019-01-03T12:38:36.851Z,35
2019-01-03T12:39:35.431Z,30
2019-01-03T12:40:33.991Z,25
2019-01-03T12:41:32.546Z,25
2019-01-03T12:42:31.276Z,20
2019-01-03T12:43:30.052Z,25
2019-01-03T12:44:28.642Z,30
2019-01-03T12:56:11.523Z,45
2019-01-03T12:57:10.195Z,45
2019-01-03T12:58:08.812Z,45
2019-01-03T12:59:07.588Z,45
2019-01-03T13:00:06.206Z,45
2019-01-03T13:01:04.784Z,45
2019-01-03T13:02:03.503Z,45
2019-01-03T13:03:02.240Z,45
2019-01-03T13:04:00.904Z,45
2019-01-03T13:04:59.632Z,45
2019-01-03T13:05:58.233Z,40
2019-01-03T13:06:56.783Z,35
2019-01-03T13:07:55.633Z,30
2019-01-03T13:08:58.056Z,25
2019-01-03T13:09:56.806Z,25
2019-01-03T13:10:55.583Z,25
2019-01-03T13:11:54.301Z,30
2019-01-03T13:12:52.971Z,30
2019-01-03T13:13:51.962Z,30
2019-01-03T13:14:50.627Z,30
2019-01-03T13:15:49.253Z,30
2019-01-03T13:16:47.922Z,30
2019-01-03T13:17:46.459Z,30
2019-01-03T13:18:45.281Z,30
2019-01-03T13:19:44.004Z,30
2019-01-03T13:20:42.524Z,30
2019-01-03T13:21:42.059Z,30
2019-01-03T13:22:40.625Z,30
2019-01-03T13:23:39.365Z,25
2019-01-03T13:24:37.984Z,25
2019-01-03T13:25:36.531Z,25
2019-01-03T13:26:35.130Z,20
2019-01-03T13:27:34.039Z,20
2019-01-03T13:28:32.614Z,15
2019-01-03T13:29:31.183Z,15
2019-01-03T13:30:30.009Z,15
2019-01-03T13:31:28.744Z,15
2019-01-03T13:32:27.395Z,15
2019-01-03T13:33:26.115Z,15
2019-01-03T13:34:24.651Z,15
2019-01-03T13:35:23.175Z,10
2019-01-03T13:36:22.002Z,10
2019-01-03T13:37:20.520Z,10
2019-01-03T13:38:19.087Z,10
2019-01-03T13:39:17.732Z,10
2019-01-03T13:40:16.332Z,15
2019-01-03T13:41:14.940Z,15
2019-01-03T13:42:13.846Z,20
2019-01-03T13:43:12.564Z,20
2019-01-03T13:44:11.095Z,25
2019-01-03T13:45:09.719Z,30
2019-01-03T13:46:08.314Z,30
2019-01-03T13:48:48.579Z,30
2019-01-03T13:49:47.393Z,30
2019-01-03T13:50:46.227Z,25
2019-01-03T13:51:44.768Z,20
2019-01-03T13:52:43.572Z,20
2019-01-03T13:53:42.209Z,20
2019-01-03T13:54:40.809Z,20
2019-01-03T13:55:39.544Z,20
2019-01-03T13:56:38.378Z,15
2019-01-03T13:57:36.925Z,15
2019-01-03T13:58:35.724Z,15
2019-01-03T13:59:34.467Z,20
2019-01-03T14:00:33.047Z,20
2019-01-03T14:01:31.836Z,20
2019-01-03T14:02:30.722Z,20
2019-01-03T14:03:29.492Z,20
2019-01-03T14:04:28.230Z,25
2019-01-03T14:05:26.930Z,20
2019-01-03T14:18:16.497Z,5
2019-01-03T14:19:15.229Z,5
2019-01-03T14:20:14.106Z,5
2019-01-03T14:21:12.748Z,5
2019-01-03T14:22:11.480Z,5
2019-01-03T14:23:10.981Z,5
2019-01-03T14:24:09.638Z,5
2019-01-03T14:25:08.164Z,5
2019-01-03T14:26:06.732Z,5
2019-01-03T14:27:05.665Z,5
2019-01-03T14:28:04.448Z,5
2019-01-03T14:29:02.983Z,5
2019-01-03T14:30:01.600Z,5
2019-01-03T14:31:00.154Z,5
2019-01-03T14:33:35.188Z,5
2019-01-03T14:34:33.826Z,10
2019-01-03T14:35:32.406Z,10
2019-01-03T14:36:30.949Z,5
2019-01-03T14:37:29.613Z,5
2019-01-03T14:38:28.270Z,5
2019-01-03T14:39:26.840Z,5
2019-01-03T14:40:25.464Z,5
2019-01-03T14:41:24.270Z,5
2019-01-03T14:42:22.811Z,5
2019-01-03T14:45:07.203Z,5
2019-01-03T14:46:05.818Z,5
2019-01-03T14:47:04.499Z,5
2019-01-03T14:48:03.008Z,5
2019-01-03T14:49:01.627Z,0
2019-01-03T14:50:00.245Z,0
2019-01-03T14:50:58.762Z,0
2019-01-03T14:51:58.526Z,0
2019-01-03T14:52:57.031Z,0
2019-01-03T14:53:55.964Z,5
2019-01-03T14:54:54.731Z,5
2019-01-03T14:55:53.138Z,5
2019-01-03T14:56:51.849Z,5
2019-01-03T14:57:50.535Z,5
2019-01-03T14:58:49.079Z,5
2019-01-03T14:59:47.898Z,5
2019-01-03T15:00:46.498Z,5
2019-01-03T15:01:45.074Z,5
2019-01-03T15:02:43.831Z,0
2019-01-03T15:03:42.508Z,0
2019-01-03T15:04:41.233Z,0
2019-01-03T15:05:40.103Z,0
2019-01-03T15:06:38.669Z,0
2019-01-03T15:07:37.464Z,0
2019-01-03T15:08:36.033Z,0
2019-01-03T15:09:34.589Z,0
2019-01-03T15:10:33.178Z,0
2019-01-03T15:11:31.912Z,0
2019-01-03T15:12:30.597Z,0
2019-01-03T15:13:29.377Z,0
2019-01-03T15:14:28.034Z,0
2019-01-03T15:17:08.055Z,0
2019-01-03T15:18:06.604Z,0
2019-01-03T15:19:05.433Z,0
2019-01-03T15:20:04.221Z,0
2019-01-03T15:21:02.746Z,0
2019-01-03T15:22:01.564Z,0
2019-01-03T15:23:00.110Z,0
2019-01-03T15:23:58.658Z,0
2019-01-03T15:24:57.324Z,0
2019-01-03T15:25:56.013Z,0
2019-01-03T15:26:54.572Z,0
2019-01-03T15:27:53.254Z,0
2019-01-03T15:28:52.236Z,0
2019-01-03T15:29:50.805Z,0
2019-01-03T15:30:51.621Z,0
2019-01-03T15:31:50.241Z,0
2019-01-03T15:32:48.769Z,0